Alton, Utah
Current Conditions -  °F | °C
As of 12:53 PM on Monday 26 Jan 2015 (Local Time) from KBCE Reporting Station
Clear Clear  
Wind Chill: 45°   Ceiling: Unl
Heat Index: 49°   Visibility: 10mi
Dew Point: 25°   Wind: 9mph
Humidity: 39%   Direction: 140°SE
Pressure: 30.35"   Gusts: 17mph
Location:  37.44°N, 112.48°W
Report Text: KBCE 261953Z AUTO 14008G15KT 10SM CLR 09/M04 A3035 RMK AO2 SLP235 T00941039
Loading
Personal Weather Stations






























Interactive Weather Map New forecast layout! Learn more

10-Day Weather Forecast

Advertisements
Track Severe Weather on mobile